Calgary International Airport
CYYC : rendu visible

Aérodrome :











RETROUVEZ-NOUS SUR...

 
LOGIN :

S'inscrire | Disclaimer

   EN    FR    IT 

 









Légende :    VFR   VFR Marginal   IFR   IFR Intensif   IFR Très Intensif
Visi : 
Plafond : 
>= 8 km
>= 3000ft
5 à 8 km
1000 à 3000 ft
1500m à 5 km
500 à 1000 ft
800 à 1500m
200 à 500 ft
< 800m
< 200 ft
Symboles :   Orages  Brouillard  Fortes neiges  Fortes précipitations  Vent > 20 kt






- Altitude de l'aérodrome : 3557 ft
- Code IATA : YYC


CYYC - Calgary International

DERNIER METAR :
  • 190400Z 17008KT 12SM BKN230 M21/M25 A3022 RMK CI5 SLP351

METARs EXPIRÉS :
  • 190300Z 18010KT 10SM BKN220 M20/M25 A3021 RMK CI5 SLP347
  • 190200Z 16007KT 15SM BKN110 BKN130 BKN180 M20/M24 A3021 RMK AS5AC1AC1 AC TR SLP349

TAF TAF CYYC
Valide du 19 à 03h jusqu'au 20 à 00h UTC


190238Z 1903/1924 18010KT P6SM SCT080 BKN120 BKN200
FM190600 20008KT P6SM SCT140 SCT240
FM190900 VRB03KT P6SM FEW140 SCT260
BECMG 1918/1920 25008KT
FM192000 25008KT P6SM BKN120 RMK NXT FCST BY 190600Z



MET'MAP, la Météo Aéronautique d'un coup d'oeil ! - Copyright ORBIFLY Décembre 2007 - Disclaimer

ORBIFLY MET'MAP TEAM :

Programmation & Développement : Alexandra Zaïnal
Sur une idée originale de : Baudouin d'Aumeries
Assistance à la programmation : Marc-Olivier Méhu
Soutien technique & logistique : Manuel Goepfert

Contact : metmap@orbifly.com




SOURCES & CREDITS :

   NOAA       Earth
Advisory